Time;durP1;ratioP1;P1;durP2;ratioP2;P2;SDS_P1;SDS_P2;PMS_P1;PMS_P2;Temp;Humidity;BMP_temperature;BMP_pressure;BME280_temperature;BME280_humidity;BME280_pressure;Samples;Min_cycle;Max_cycle;Signal;HPM_P1;HPM_P2
2023/06/13 00:01:36;;;;;;;7.33;6.20;;;21.80;62.90;;;;;;5013951;28;20229;-72
2023/06/13 00:04:03;;;;;;;6.90;5.63;;;21.80;63.00;;;;;;5002341;28;20229;-72
2023/06/13 00:06:30;;;;;;;7.13;5.93;;;21.80;62.80;;;;;;5015014;28;20452;-72
2023/06/13 00:08:57;;;;;;;6.60;6.00;;;21.70;62.70;;;;;;4996633;28;20475;-72
2023/06/13 00:11:22;;;;;;;6.20;5.30;;;21.70;62.90;;;;;;5007778;28;21026;-73
2023/06/13 00:13:48;;;;;;;6.00;5.50;;;21.70;63.10;;;;;;4992484;28;20495;-72
2023/06/13 00:16:15;;;;;;;8.77;5.90;;;21.70;62.90;;;;;;5007359;28;20209;-72
2023/06/13 00:18:40;;;;;;;6.23;5.70;;;21.70;62.70;;;;;;4990201;28;20225;-71
2023/06/13 00:21:07;;;;;;;6.60;5.70;;;21.40;62.90;;;;;;5009611;28;20460;-72
2023/06/13 00:23:33;;;;;;;7.93;6.17;;;21.50;62.90;;;;;;5007424;28;20274;-73
2023/06/13 00:25:59;;;;;;;6.17;5.60;;;21.50;62.90;;;;;;5009361;28;20950;-72
2023/06/13 00:28:24;;;;;;;6.20;5.60;;;21.40;62.90;;;;;;4998143;28;20420;-71
2023/06/13 00:30:51;;;;;;;6.30;5.70;;;21.40;63.10;;;;;;5009669;28;20229;-72
2023/06/13 00:33:17;;;;;;;6.77;5.70;;;21.40;62.90;;;;;;5003527;28;20221;-73
2023/06/13 00:35:45;;;;;;;7.90;6.00;;;21.40;63.00;;;;;;5000515;28;21028;-72
2023/06/13 00:38:12;;;;;;;6.80;6.10;;;21.30;62.90;;;;;;5020614;28;20464;-72
2023/06/13 00:40:39;;;;;;;7.07;6.40;;;21.30;62.80;;;;;;5022800;28;20309;-72
2023/06/13 00:43:05;;;;;;;6.23;5.70;;;21.30;62.90;;;;;;5017257;28;20462;-72
2023/06/13 00:45:33;;;;;;;7.23;6.53;;;21.30;63.10;;;;;;5017390;28;20452;-72
2023/06/13 00:48:03;;;;;;;7.20;5.23;;;21.30;63.30;;;;;;5005487;28;20448;-72
2023/06/13 00:50:40;;;;;;;6.00;5.40;;;21.20;63.10;;;;;;5009793;28;20463;-72
2023/06/13 00:53:11;;;;;;;6.23;5.63;;;21.20;63.10;;;;;;5010312;28;20495;-73
2023/06/13 00:55:38;;;;;;;8.43;5.80;;;21.20;62.90;;;;;;5010484;28;20460;-71
2023/06/13 00:58:07;;;;;;;6.60;5.83;;;21.20;62.70;;;;;;5008882;28;20457;-72
2023/06/13 01:00:37;;;;;;;7.77;5.93;;;21.10;63.50;;;;;;5016277;28;20452;-72
2023/06/13 01:03:07;;;;;;;6.57;5.97;;;21.10;62.90;;;;;;5024090;28;20456;-72
2023/06/13 01:05:35;;;;;;;7.20;6.50;;;21.10;62.90;;;;;;5018498;28;20443;-74
2023/06/13 01:08:06;;;;;;;6.13;5.40;;;21.10;62.90;;;;;;5016087;28;20807;-74
2023/06/13 01:10:33;;;;;;;7.00;6.13;;;21.00;62.90;;;;;;5015757;28;20535;-72
2023/06/13 01:13:14;;;;;;;7.10;5.93;;;21.00;62.90;;;;;;5009746;28;20451;-72
2023/06/13 01:15:50;;;;;;;7.80;5.90;;;20.90;62.80;;;;;;4994885;28;20440;-72
2023/06/13 01:18:20;;;;;;;9.10;5.70;;;20.90;62.80;;;;;;5009099;28;20449;-72
2023/06/13 01:20:46;;;;;;;6.37;5.80;;;20.90;63.20;;;;;;5005971;28;20977;-72
2023/06/13 01:23:25;;;;;;;6.50;5.90;;;20.70;63.10;;;;;;5016216;28;20551;-72
2023/06/13 01:26:03;;;;;;;8.20;6.00;;;20.50;63.70;;;;;;4999782;28;20443;-71
2023/06/13 01:28:34;;;;;;;7.33;6.63;;;20.50;63.80;;;;;;5021741;28;20444;-72
2023/06/13 01:31:06;;;;;;;5.67;5.17;;;20.60;63.70;;;;;;5008800;28;20473;-72
2023/06/13 01:33:32;;;;;;;7.70;6.23;;;20.50;63.50;;;;;;5015861;28;20450;-72
2023/06/13 01:35:58;;;;;;;6.63;6.03;;;20.50;63.40;;;;;;4991624;28;20467;-72
2023/06/13 01:38:24;;;;;;;6.80;6.20;;;20.50;63.40;;;;;;5015380;28;20536;-70
2023/06/13 01:40:50;;;;;;;6.50;5.90;;;20.50;63.40;;;;;;5016757;28;20500;-71
2023/06/13 01:43:16;;;;;;;6.93;6.23;;;20.40;63.30;;;;;;5018670;28;20440;-70
2023/06/13 01:45:41;;;;;;;7.00;5.87;;;20.40;63.40;;;;;;5015288;28;20255;-72
2023/06/13 01:48:14;;;;;;;8.13;6.20;;;20.40;63.50;;;;;;4993646;28;20213;-71
2023/06/13 01:50:50;;;;;;;6.63;5.77;;;20.30;63.20;;;;;;5001156;28;20236;-72
2023/06/13 01:53:36;;;;;;;11.00;6.50;;;20.30;63.30;;;;;;5012253;28;20449;-70
2023/06/13 01:56:06;;;;;;;7.83;6.10;;;20.30;63.50;;;;;;5014184;28;21073;-72
2023/06/13 01:58:55;;;;;;;5.70;5.13;;;20.20;63.50;;;;;;5009214;28;20958;-72
2023/06/13 02:01:24;;;;;;;7.87;6.33;;;20.20;63.30;;;;;;5012256;28;20514;-71
2023/06/13 02:03:50;;;;;;;8.90;5.97;;;20.10;63.40;;;;;;5026104;28;21056;-72
2023/06/13 02:06:17;;;;;;;6.80;5.50;;;20.00;63.60;;;;;;5005843;28;20508;-72
2023/06/13 02:08:44;;;;;;;6.30;5.43;;;19.90;63.50;;;;;;5008356;28;20533;-72
2023/06/13 02:11:12;;;;;;;6.53;5.90;;;19.80;63.60;;;;;;5017636;28;20461;-71
2023/06/13 02:13:38;;;;;;;6.70;6.00;;;19.80;63.60;;;;;;5005863;28;20454;-72
2023/06/13 02:16:03;;;;;;;6.73;6.13;;;19.80;63.70;;;;;;5007736;28;20252;-72
2023/06/13 02:18:30;;;;;;;6.70;6.00;;;19.80;63.70;;;;;;5013833;28;20225;-72
2023/06/13 02:20:56;;;;;;;7.07;6.20;;;19.80;63.80;;;;;;5006831;28;20727;-72
2023/06/13 02:23:23;;;;;;;6.00;5.50;;;19.80;63.80;;;;;;5006537;28;20460;-73
2023/06/13 02:25:51;;;;;;;8.17;5.60;;;19.70;63.60;;;;;;5021861;28;20494;-70
2023/06/13 02:28:17;;;;;;;6.80;5.63;;;19.70;63.60;;;;;;5016455;28;20436;-71
2023/06/13 02:30:47;;;;;;;6.87;6.17;;;19.70;63.40;;;;;;4991742;28;20543;-69
2023/06/13 02:33:14;;;;;;;6.97;5.30;;;19.60;63.60;;;;;;5007538;28;20500;-70
2023/06/13 02:35:39;;;;;;;7.23;6.63;;;19.50;63.60;;;;;;5015397;28;20468;-69
2023/06/13 02:38:07;;;;;;;6.03;5.43;;;19.50;64.00;;;;;;5015627;28;20459;-70
2023/06/13 02:40:36;;;;;;;6.40;5.80;;;19.50;63.80;;;;;;5003764;28;20461;-70
2023/06/13 02:43:01;;;;;;;5.80;5.20;;;19.40;63.60;;;;;;4989417;28;20218;-70
2023/06/13 02:45:27;;;;;;;6.33;5.03;;;19.40;63.80;;;;;;5000864;28;20445;-70
2023/06/13 02:47:54;;;;;;;6.07;5.57;;;19.40;63.70;;;;;;5006860;28;20224;-70
2023/06/13 02:50:21;;;;;;;6.30;5.70;;;19.30;63.70;;;;;;5003519;28;20237;-70
2023/06/13 02:52:47;;;;;;;7.43;5.53;;;19.10;64.10;;;;;;5004588;28;20480;-70
2023/06/13 02:55:13;;;;;;;6.20;5.60;;;19.20;64.10;;;;;;5005429;28;21003;-70
2023/06/13 02:57:39;;;;;;;5.80;5.27;;;19.10;64.30;;;;;;5007985;28;20256;-69
2023/06/13 03:00:10;;;;;;;6.50;5.30;;;19.20;64.30;;;;;;4994508;28;20830;-70
2023/06/13 03:02:39;;;;;;;6.17;5.67;;;19.30;63.90;;;;;;5001369;28;20233;-69
2023/06/13 03:05:07;;;;;;;6.73;6.00;;;19.30;63.70;;;;;;4998791;28;20444;-72
2023/06/13 03:07:34;;;;;;;9.30;6.07;;;19.20;63.50;;;;;;5006202;28;20461;-70
2023/06/13 03:10:01;;;;;;;6.80;6.20;;;19.30;63.60;;;;;;4989694;28;20461;-69
2023/06/13 03:12:28;;;;;;;7.60;5.87;;;19.20;63.30;;;;;;5016649;28;20479;-70
2023/06/13 03:14:53;;;;;;;8.70;6.23;;;19.20;63.40;;;;;;5009061;28;20476;-70
2023/06/13 03:17:19;;;;;;;6.43;5.23;;;19.20;63.40;;;;;;4996306;28;20240;-70
2023/06/13 03:19:45;;;;;;;7.47;5.73;;;19.20;63.50;;;;;;5011462;28;20232;-70
2023/06/13 03:22:13;;;;;;;6.53;5.93;;;19.10;63.40;;;;;;5010954;28;20237;-72
2023/06/13 03:24:44;;;;;;;6.80;6.17;;;19.10;63.40;;;;;;5007694;28;20222;-70
2023/06/13 03:27:12;;;;;;;10.40;5.80;;;19.00;63.40;;;;;;5008854;28;20495;-70
2023/06/13 03:29:41;;;;;;;6.77;6.07;;;18.90;63.90;;;;;;4999878;28;20453;-70
2023/06/13 03:32:09;;;;;;;7.83;6.10;;;18.90;63.90;;;;;;5008395;28;20457;-70
2023/06/13 03:34:38;;;;;;;8.93;5.50;;;18.80;63.80;;;;;;4995451;28;20801;-70
2023/06/13 03:37:08;;;;;;;6.10;5.50;;;18.70;64.00;;;;;;4996396;28;20449;-70
2023/06/13 03:39:35;;;;;;;8.00;5.73;;;18.60;64.30;;;;;;4993419;28;20460;-70
2023/06/13 03:42:01;;;;;;;8.40;6.47;;;18.50;64.70;;;;;;4981177;28;20842;-70
2023/06/13 03:44:28;;;;;;;10.43;6.13;;;18.40;64.80;;;;;;4990269;28;20226;-70
2023/06/13 03:46:56;;;;;;;9.00;7.20;;;18.50;64.70;;;;;;4990077;28;20464;-70
2023/06/13 03:49:26;;;;;;;6.63;5.93;;;18.50;64.70;;;;;;5000957;28;20556;-70
2023/06/13 03:51:52;;;;;;;5.50;5.00;;;18.40;65.00;;;;;;5006634;28;20511;-70
2023/06/13 03:54:21;;;;;;;6.40;5.40;;;18.40;64.90;;;;;;4987715;28;20453;-68
2023/06/13 03:56:48;;;;;;;7.03;6.10;;;18.40;65.10;;;;;;5007315;28;20475;-69
2023/06/13 03:59:14;;;;;;;6.00;4.93;;;18.50;64.90;;;;;;4998883;28;20966;-72
2023/06/13 04:01:43;;;;;;;8.03;5.13;;;18.40;65.00;;;;;;5007757;28;20896;-71
2023/06/13 04:04:09;;;;;;;6.60;5.90;;;18.30;65.60;;;;;;5009406;28;20472;-74
2023/06/13 04:06:37;;;;;;;5.90;5.30;;;18.20;65.70;;;;;;5008015;28;20982;-71
2023/06/13 04:09:05;;;;;;;6.10;5.50;;;18.30;65.60;;;;;;5013227;28;20962;-70
2023/06/13 04:11:32;;;;;;;6.63;5.93;;;18.50;65.40;;;;;;5012168;28;20467;-71
2023/06/13 04:13:58;;;;;;;5.90;5.30;;;18.30;65.50;;;;;;5010228;28;20456;-72
2023/06/13 04:16:26;;;;;;;6.57;5.07;;;18.40;65.70;;;;;;4993036;28;20464;-72
2023/06/13 04:18:54;;;;;;;6.27;5.67;;;18.50;65.50;;;;;;5002102;28;20477;-72
2023/06/13 04:21:24;;;;;;;5.97;5.43;;;18.30;66.20;;;;;;5003418;28;20222;-72
2023/06/13 04:23:52;;;;;;;8.27;5.40;;;18.30;66.10;;;;;;5005647;28;20464;-72
2023/06/13 04:26:18;;;;;;;6.50;5.00;;;18.30;65.90;;;;;;5005835;28;20548;-72
2023/06/13 04:28:45;;;;;;;5.67;5.10;;;18.40;65.70;;;;;;5011451;28;20544;-72
2023/06/13 04:31:12;;;;;;;6.07;5.47;;;18.50;65.80;;;;;;4987805;28;20317;-72
2023/06/13 04:33:39;;;;;;;4.83;4.43;;;18.50;65.80;;;;;;4988965;28;20463;-72
2023/06/13 04:36:08;;;;;;;6.33;4.80;;;18.40;66.30;;;;;;5010395;28;20453;-72
2023/06/13 04:38:35;;;;;;;5.33;4.93;;;18.60;66.10;;;;;;5004659;28;20983;-72
2023/06/13 04:41:01;;;;;;;7.83;6.30;;;18.60;66.50;;;;;;4987893;28;20480;-73
2023/06/13 04:43:33;;;;;;;7.60;5.83;;;18.70;66.30;;;;;;5006637;28;20526;-72
2023/06/13 04:46:02;;;;;;;5.53;5.00;;;18.70;65.90;;;;;;5009133;28;20501;-72
2023/06/13 04:48:28;;;;;;;5.53;4.97;;;18.80;66.10;;;;;;5004694;28;20452;-71
2023/06/13 04:50:54;;;;;;;6.40;5.20;;;18.80;65.90;;;;;;5005753;28;20493;-72
2023/06/13 04:53:21;;;;;;;6.20;5.30;;;18.80;65.80;;;;;;5008472;28;20248;-72
2023/06/13 04:55:48;;;;;;;5.93;4.77;;;18.90;65.70;;;;;;5007607;28;20229;-74
2023/06/13 04:58:15;;;;;;;5.40;4.90;;;18.90;65.50;;;;;;5004244;28;20475;-72
2023/06/13 05:00:41;;;;;;;7.70;5.63;;;19.00;65.90;;;;;;5002153;28;20475;-72
2023/06/13 05:03:07;;;;;;;4.63;4.23;;;19.00;65.60;;;;;;5001121;28;20450;-72
2023/06/13 05:05:32;;;;;;;7.60;5.37;;;19.00;65.40;;;;;;5005679;28;20220;-71
2023/06/13 05:07:59;;;;;;;11.70;4.80;;;19.00;65.50;;;;;;5002214;28;20548;-72
2023/06/13 05:10:25;;;;;;;5.30;4.80;;;19.10;65.90;;;;;;5009966;28;20727;-71
2023/06/13 05:12:53;;;;;;;6.97;4.53;;;19.10;66.10;;;;;;4994216;28;20480;-71
2023/06/13 05:15:20;;;;;;;5.03;4.53;;;19.20;67.10;;;;;;4983226;28;20510;-72
2023/06/13 05:17:48;;;;;;;5.53;4.70;;;19.20;67.10;;;;;;5003542;28;20476;-72
2023/06/13 05:20:14;;;;;;;7.33;5.03;;;19.20;66.50;;;;;;4989887;28;20535;-71
2023/06/13 05:22:41;;;;;;;6.20;5.43;;;19.30;67.00;;;;;;5004878;28;21030;-72
2023/06/13 05:25:11;;;;;;;6.90;5.27;;;19.30;67.10;;;;;;5006408;28;20473;-72
2023/06/13 05:27:37;;;;;;;5.97;4.47;;;19.40;67.00;;;;;;4981547;28;20528;-72
2023/06/13 05:30:06;;;;;;;5.70;5.10;;;19.40;67.30;;;;;;4994190;28;20457;-72
2023/06/13 05:32:32;;;;;;;4.80;4.40;;;19.50;67.60;;;;;;5005684;28;20460;-71
2023/06/13 05:34:58;;;;;;;10.03;5.47;;;19.50;68.10;;;;;;5006410;28;20526;-72
2023/06/13 05:37:23;;;;;;;9.53;5.40;;;19.50;68.50;;;;;;5006886;28;20218;-72
2023/06/13 05:39:49;;;;;;;5.80;5.20;;;19.60;68.30;;;;;;5003687;28;20225;-71
2023/06/13 05:42:14;;;;;;;10.73;5.30;;;19.70;69.10;;;;;;5008941;28;20229;-72
2023/06/13 05:44:40;;;;;;;5.33;4.83;;;19.80;69.60;;;;;;4989830;28;20642;-72
2023/06/13 05:47:06;;;;;;;5.10;4.60;;;19.80;69.40;;;;;;5004554;28;20362;-72
2023/06/13 05:49:32;;;;;;;6.13;4.90;;;19.80;68.70;;;;;;4998500;28;20285;-72
2023/06/13 05:51:57;;;;;;;6.10;4.90;;;19.80;68.50;;;;;;5002336;28;20636;-72
2023/06/13 05:54:23;;;;;;;6.73;5.33;;;19.90;68.90;;;;;;5002702;28;20229;-73
2023/06/13 05:56:48;;;;;;;5.93;5.33;;;20.00;69.10;;;;;;5006061;28;20221;-73
2023/06/13 05:59:15;;;;;;;5.60;5.00;;;20.10;68.40;;;;;;4985489;28;20225;-72
2023/06/13 06:01:45;;;;;;;6.47;5.90;;;20.10;68.00;;;;;;5005025;28;20233;-72
2023/06/13 06:04:11;;;;;;;5.60;5.00;;;20.10;68.70;;;;;;4998417;28;20466;-73
2023/06/13 06:06:37;;;;;;;5.73;4.50;;;20.20;68.90;;;;;;5007603;28;20469;-73
2023/06/13 06:09:04;;;;;;;6.70;5.37;;;20.30;68.50;;;;;;5004588;28;20237;-72
2023/06/13 06:11:31;;;;;;;5.10;4.70;;;20.30;68.60;;;;;;4988288;28;20507;-72
2023/06/13 06:13:56;;;;;;;6.03;5.03;;;20.30;67.80;;;;;;5003166;28;20464;-72
2023/06/13 06:16:22;;;;;;;5.70;5.17;;;20.30;68.30;;;;;;4982270;28;20523;-71
2023/06/13 06:18:48;;;;;;;6.80;6.20;;;20.30;68.20;;;;;;5003384;28;20597;-72
2023/06/13 06:21:14;;;;;;;5.27;4.77;;;20.40;68.80;;;;;;4997788;28;20225;-72
2023/06/13 06:23:42;;;;;;;11.37;5.77;;;20.40;68.40;;;;;;5001769;28;20228;-73
2023/06/13 06:26:08;;;;;;;5.60;5.10;;;20.50;68.80;;;;;;5002674;28;20548;-72
2023/06/13 06:28:34;;;;;;;5.00;4.60;;;20.60;68.80;;;;;;4985238;28;20453;-72
2023/06/13 06:31:00;;;;;;;5.70;5.20;;;20.70;68.80;;;;;;4997801;28;20475;-72
2023/06/13 06:33:27;;;;;;;6.80;4.97;;;20.70;68.50;;;;;;4998044;28;20210;-72
2023/06/13 06:35:53;;;;;;;6.27;5.30;;;20.80;68.60;;;;;;4999393;28;20970;-73
2023/06/13 06:38:19;;;;;;;5.43;4.60;;;20.90;68.70;;;;;;5005906;28;20464;-72
2023/06/13 06:40:45;;;;;;;5.40;4.90;;;20.90;68.10;;;;;;5001513;28;20280;-73
2023/06/13 06:43:11;;;;;;;4.80;4.30;;;20.90;68.80;;;;;;4987768;28;20500;-72
2023/06/13 06:45:37;;;;;;;5.83;5.27;;;21.00;68.50;;;;;;5004619;28;20469;-73
2023/06/13 06:48:03;;;;;;;5.20;4.80;;;21.00;67.70;;;;;;5001631;28;20463;-73
2023/06/13 06:50:29;;;;;;;5.63;5.13;;;21.10;67.70;;;;;;5005148;28;20221;-73
2023/06/13 06:52:55;;;;;;;7.33;4.50;;;21.20;67.70;;;;;;4999785;28;20475;-72
2023/06/13 06:55:20;;;;;;;5.80;4.57;;;21.20;68.40;;;;;;4990654;28;20245;-72
2023/06/13 06:57:46;;;;;;;5.53;4.90;;;21.30;68.00;;;;;;5004571;28;20248;-73
2023/06/13 07:00:14;;;;;;;5.60;5.10;;;21.40;68.10;;;;;;5000079;28;20209;-72
2023/06/13 07:02:41;;;;;;;5.43;4.53;;;21.40;68.00;;;;;;4997431;28;20237;-73
2023/06/13 07:05:08;;;;;;;6.93;6.30;;;21.50;68.40;;;;;;4986272;28;20559;-73
2023/06/13 07:07:34;;;;;;;4.90;4.40;;;21.60;67.60;;;;;;4986339;28;20465;-72
2023/06/13 07:09:59;;;;;;;5.73;5.20;;;21.60;67.70;;;;;;5002549;28;20588;-73
2023/06/13 07:12:25;;;;;;;9.30;5.00;;;21.70;68.00;;;;;;5003976;28;20225;-73
2023/06/13 07:14:50;;;;;;;5.90;5.33;;;21.80;67.60;;;;;;5001037;28;20229;-72
2023/06/13 07:17:16;;;;;;;6.30;4.93;;;21.70;67.30;;;;;;5001205;28;20579;-72
2023/06/13 07:19:42;;;;;;;8.00;5.30;;;21.80;67.70;;;;;;5003424;28;20221;-73
2023/06/13 07:22:07;;;;;;;5.33;4.83;;;22.00;67.10;;;;;;5000832;28;20221;-73
2023/06/13 07:24:33;;;;;;;5.40;4.90;;;22.20;67.20;;;;;;4984849;28;20275;-72
2023/06/13 07:26:59;;;;;;;5.63;5.00;;;22.20;66.80;;;;;;5002791;28;20221;-73
2023/06/13 07:29:24;;;;;;;5.30;4.80;;;22.30;66.40;;;;;;4997568;28;20218;-73
2023/06/13 07:31:50;;;;;;;6.57;5.90;;;22.40;66.40;;;;;;4985485;28;20221;-73
2023/06/13 07:34:16;;;;;;;9.33;5.00;;;22.40;66.60;;;;;;5003996;28;20598;-73
2023/06/13 07:36:43;;;;;;;5.73;5.23;;;22.50;66.60;;;;;;4999568;28;20305;-73
2023/06/13 07:39:12;;;;;;;5.57;5.13;;;22.60;66.80;;;;;;5000989;28;20218;-73
2023/06/13 07:41:38;;;;;;;5.97;5.37;;;22.60;66.60;;;;;;4996193;28;20492;-73
2023/06/13 07:44:05;;;;;;;5.47;4.93;;;22.70;66.30;;;;;;4995698;28;20967;-72
2023/06/13 07:46:31;;;;;;;5.90;5.40;;;22.80;66.20;;;;;;4999044;28;20717;-72
2023/06/13 07:48:56;;;;;;;5.70;5.20;;;22.90;66.20;;;;;;5004758;28;20464;-73
2023/06/13 07:51:22;;;;;;;5.53;5.03;;;23.00;66.20;;;;;;4979443;28;20225;-73
2023/06/13 07:53:48;;;;;;;5.57;5.07;;;23.00;65.50;;;;;;4988110;28;20213;-73
2023/06/13 07:56:13;;;;;;;5.10;4.70;;;23.10;65.30;;;;;;5000282;28;20232;-72
2023/06/13 07:58:39;;;;;;;5.13;4.73;;;23.30;64.20;;;;;;5003071;28;20225;-73
2023/06/13 08:01:05;;;;;;;6.20;5.40;;;23.40;63.80;;;;;;4999665;28;20289;-72
2023/06/13 08:03:31;;;;;;;5.40;4.90;;;23.50;63.80;;;;;;4987948;28;20224;-73
2023/06/13 08:05:57;;;;;;;4.93;4.53;;;23.40;63.30;;;;;;5004273;28;20214;-74
2023/06/13 08:08:23;;;;;;;5.47;4.97;;;23.50;63.00;;;;;;5004453;28;20214;-73
2023/06/13 08:10:48;;;;;;;4.90;4.50;;;23.50;62.70;;;;;;4985614;28;21004;-71
2023/06/13 08:13:14;;;;;;;5.47;4.97;;;23.40;63.00;;;;;;5001808;28;20650;-72
2023/06/13 08:15:40;;;;;;;5.10;4.70;;;23.50;63.20;;;;;;4984534;28;20714;-73
2023/06/13 08:18:05;;;;;;;5.83;5.07;;;23.50;61.90;;;;;;5004377;28;20222;-72
2023/06/13 08:20:31;;;;;;;4.70;4.30;;;23.70;62.00;;;;;;4981314;28;20250;-73
2023/06/13 08:22:59;;;;;;;4.83;4.43;;;23.80;61.70;;;;;;5000570;28;20237;-73
2023/06/13 08:25:25;;;;;;;6.57;5.40;;;23.70;60.30;;;;;;5001062;28;20908;-73
2023/06/13 08:27:52;;;;;;;4.73;4.30;;;23.80;59.70;;;;;;4982135;28;20477;-72
2023/06/13 08:30:18;;;;;;;5.30;4.80;;;23.70;59.40;;;;;;4999479;28;20777;-72
2023/06/13 08:32:46;;;;;;;4.57;4.20;;;23.70;59.50;;;;;;4982415;28;20465;-72
2023/06/13 08:35:12;;;;;;;5.37;4.80;;;23.80;59.50;;;;;;4985287;28;20507;-74
2023/06/13 08:37:41;;;;;;;4.90;4.50;;;23.90;59.40;;;;;;4995875;28;20982;-73
2023/06/13 08:40:09;;;;;;;4.83;4.43;;;24.00;59.00;;;;;;4996208;28;20525;-72
2023/06/13 08:42:36;;;;;;;4.33;4.00;;;23.80;58.90;;;;;;4985533;28;20476;-75
2023/06/13 08:45:02;;;;;;;5.27;4.77;;;24.10;59.10;;;;;;4985659;28;20471;-74
2023/06/13 08:47:28;;;;;;;5.00;4.50;;;24.40;59.10;;;;;;4998825;28;20533;-72
2023/06/13 08:49:54;;;;;;;5.00;4.50;;;24.70;59.00;;;;;;5000455;28;21006;-73
2023/06/13 08:52:23;;;;;;;6.10;4.50;;;24.60;58.80;;;;;;4999086;28;20269;-73
2023/06/13 08:54:53;;;;;;;5.33;4.83;;;24.60;59.20;;;;;;5001803;28;20475;-73
2023/06/13 08:57:21;;;;;;;7.90;5.23;;;24.50;59.20;;;;;;5005917;28;20463;-72
2023/06/13 08:59:51;;;;;;;6.87;5.10;;;24.60;59.30;;;;;;5005360;28;21014;-73
2023/06/13 09:02:20;;;;;;;4.73;4.33;;;24.80;59.30;;;;;;4999613;28;20491;-72
2023/06/13 09:04:47;;;;;;;5.43;5.00;;;24.80;59.00;;;;;;5006204;28;20461;-74
2023/06/13 09:07:14;;;;;;;9.43;4.80;;;24.60;58.50;;;;;;5002337;28;20464;-72
2023/06/13 09:09:42;;;;;;;5.47;4.97;;;24.50;57.50;;;;;;5000378;28;20483;-73
2023/06/13 09:12:11;;;;;;;5.63;4.83;;;24.40;57.90;;;;;;4988176;28;20547;-73
2023/06/13 09:14:37;;;;;;;5.47;4.97;;;24.60;57.80;;;;;;4989963;28;20478;-73
2023/06/13 09:17:03;;;;;;;6.20;4.23;;;24.80;57.50;;;;;;5005301;28;20476;-72
2023/06/13 09:19:29;;;;;;;5.10;4.60;;;24.60;57.80;;;;;;5005426;28;20528;-72
2023/06/13 09:21:55;;;;;;;5.57;5.07;;;24.50;57.80;;;;;;5003648;28;21051;-73
2023/06/13 09:24:23;;;;;;;5.00;4.60;;;24.80;57.40;;;;;;5003668;28;20360;-72
2023/06/13 09:26:49;;;;;;;6.43;5.93;;;25.00;57.50;;;;;;5001601;28;20714;-74
2023/06/13 09:29:15;;;;;;;5.27;4.87;;;25.00;57.10;;;;;;5003647;28;20467;-73
2023/06/13 09:31:41;;;;;;;4.93;4.33;;;24.90;56.30;;;;;;5005945;28;20483;-72
2023/06/13 09:34:07;;;;;;;4.73;4.33;;;25.00;56.30;;;;;;5004335;28;21021;-72
2023/06/13 09:36:38;;;;;;;5.10;4.70;;;24.90;56.20;;;;;;5001323;28;20715;-74
2023/06/13 09:39:04;;;;;;;4.63;4.33;;;25.00;56.50;;;;;;5008711;28;20222;-72
2023/06/13 09:41:31;;;;;;;6.27;5.77;;;25.10;56.00;;;;;;5000943;28;20489;-73
2023/06/13 09:44:04;;;;;;;5.07;4.63;;;25.10;56.10;;;;;;5001825;28;20480;-73
2023/06/13 09:46:35;;;;;;;5.03;4.60;;;25.10;56.00;;;;;;5004627;28;20472;-72
2023/06/13 09:49:01;;;;;;;5.50;5.00;;;25.40;56.30;;;;;;5001307;28;20469;-73
2023/06/13 09:51:29;;;;;;;8.30;4.13;;;25.60;55.70;;;;;;5004577;28;20472;-73
2023/06/13 09:53:55;;;;;;;4.90;4.37;;;25.90;55.30;;;;;;4989886;28;20452;-73
2023/06/13 09:56:23;;;;;;;5.93;4.87;;;26.00;55.50;;;;;;5002570;28;20463;-73
2023/06/13 09:58:50;;;;;;;5.77;5.27;;;26.00;55.60;;;;;;5000055;28;20985;-73
2023/06/13 10:01:17;;;;;;;5.43;4.97;;;25.80;55.70;;;;;;5015092;28;20918;-72
2023/06/13 10:03:43;;;;;;;5.17;4.77;;;26.00;55.60;;;;;;5007356;28;20464;-72
2023/06/13 10:06:09;;;;;;;5.30;4.90;;;25.80;55.80;;;;;;4986612;28;20496;-73
2023/06/13 10:08:35;;;;;;;5.43;4.90;;;26.00;56.00;;;;;;5005080;28;20571;-73
2023/06/13 10:11:11;;;;;;;5.70;5.10;;;26.10;55.80;;;;;;5000564;28;20236;-73
2023/06/13 10:13:54;;;;;;;6.83;5.87;;;25.90;55.90;;;;;;5002465;28;20334;-73
2023/06/13 10:16:21;;;;;;;5.73;5.20;;;26.20;55.80;;;;;;5001274;28;20459;-73
2023/06/13 10:18:50;;;;;;;5.53;5.03;;;26.00;55.80;;;;;;5003615;28;20460;-72
2023/06/13 10:21:16;;;;;;;6.53;5.50;;;26.20;56.00;;;;;;5003234;28;20468;-72
2023/06/13 10:23:49;;;;;;;5.93;5.33;;;26.30;55.90;;;;;;5002234;28;20472;-73
2023/06/13 10:26:33;;;;;;;6.03;5.30;;;26.20;55.60;;;;;;5001331;28;20812;-73
2023/06/13 10:29:09;;;;;;;6.13;5.57;;;26.00;55.60;;;;;;4985784;28;20827;-72
2023/06/13 10:32:04;;;;;;;5.33;4.83;;;25.70;55.60;;;;;;5001256;28;20459;-73
2023/06/13 10:34:30;;;;;;;6.23;5.73;;;25.80;55.60;;;;;;5020282;28;20487;-74
2023/06/13 10:37:17;;;;;;;6.77;5.03;;;25.60;55.60;;;;;;4982162;28;20462;-73
2023/06/13 10:39:55;;;;;;;6.17;5.67;;;26.30;55.80;;;;;;4986975;28;20217;-72
2023/06/13 10:42:31;;;;;;;5.50;5.00;;;26.60;55.60;;;;;;4999624;28;20463;-73
2023/06/13 10:45:06;;;;;;;10.73;4.93;;;26.30;56.00;;;;;;5005084;28;20541;-72
2023/06/13 10:47:32;;;;;;;6.67;6.07;;;26.50;56.10;;;;;;4999201;28;20468;-73
2023/06/13 10:50:01;;;;;;;5.17;4.60;;;26.50;55.20;;;;;;4987445;28;20472;-74
2023/06/13 10:52:29;;;;;;;5.40;4.90;;;26.00;54.20;;;;;;4987137;28;20214;-73
2023/06/13 10:54:58;;;;;;;5.27;4.77;;;26.10;53.90;;;;;;5004563;28;20473;-73
2023/06/13 10:57:48;;;;;;;5.67;5.17;;;26.00;53.60;;;;;;4986340;28;20483;-73
2023/06/13 11:00:30;;;;;;;5.43;5.03;;;25.90;54.00;;;;;;5002926;28;20472;-73
2023/06/13 11:03:07;;;;;;;5.43;4.97;;;26.00;53.60;;;;;;5002921;28;20902;-72
2023/06/13 11:05:36;;;;;;;5.40;4.90;;;26.30;53.90;;;;;;4976344;28;20239;-73
2023/06/13 11:08:04;;;;;;;5.60;5.20;;;26.10;53.80;;;;;;5003857;28;20481;-72
2023/06/13 11:10:34;;;;;;;7.13;4.70;;;26.20;53.60;;;;;;5001039;28;20472;-73
2023/06/13 11:13:03;;;;;;;6.20;4.83;;;26.20;53.40;;;;;;4986239;28;20492;-73
2023/06/13 11:15:29;;;;;;;5.00;4.70;;;26.20;53.20;;;;;;5002892;28;20487;-73
2023/06/13 11:18:09;;;;;;;5.63;5.13;;;26.60;52.90;;;;;;4999194;28;20982;-73
2023/06/13 11:20:54;;;;;;;5.30;4.80;;;26.90;53.20;;;;;;4992109;28;20329;-73
2023/06/13 11:23:24;;;;;;;6.37;5.57;;;27.10;53.30;;;;;;5001214;28;20448;-71
2023/06/13 11:25:51;;;;;;;5.00;4.60;;;26.70;53.10;;;;;;5005434;28;20839;-71
2023/06/13 11:28:18;;;;;;;7.37;5.80;;;26.50;53.30;;;;;;5000267;28;20460;-71
2023/06/13 11:30:48;;;;;;;5.60;5.10;;;26.80;53.10;;;;;;4999921;28;20542;-72
2023/06/13 11:33:15;;;;;;;5.80;5.27;;;26.80;53.20;;;;;;4999228;28;20790;-73
2023/06/13 11:35:48;;;;;;;5.30;4.90;;;26.20;53.60;;;;;;5002770;28;20225;-73
2023/06/13 11:38:42;;;;;;;5.43;4.93;;;26.50;53.20;;;;;;5002506;28;20205;-73
2023/06/13 11:41:08;;;;;;;5.23;4.83;;;26.70;53.30;;;;;;5001551;28;20996;-73
2023/06/13 11:43:35;;;;;;;5.60;5.10;;;26.80;52.90;;;;;;5000386;28;20456;-73
2023/06/13 11:46:05;;;;;;;5.87;5.10;;;27.00;53.00;;;;;;5001898;28;20284;-73
2023/06/13 11:48:31;;;;;;;5.40;5.00;;;26.70;53.00;;;;;;5000433;28;20468;-73
2023/06/13 11:51:13;;;;;;;5.87;4.40;;;26.40;52.60;;;;;;5001264;28;20506;-73
2023/06/13 11:53:50;;;;;;;5.70;5.07;;;26.50;52.40;;;;;;5003065;28;20460;-73
2023/06/13 11:56:17;;;;;;;5.67;5.17;;;26.90;52.30;;;;;;5001454;28;20267;-71
2023/06/13 11:58:45;;;;;;;13.07;5.67;;;27.00;51.60;;;;;;4986126;28;20217;-70
2023/06/13 12:01:16;;;;;;;5.10;4.70;;;26.90;51.10;;;;;;4998259;28;20556;-75
2023/06/13 12:03:45;;;;;;;5.37;4.87;;;26.70;51.90;;;;;;5000511;28;20540;-73
2023/06/13 12:06:12;;;;;;;6.30;5.80;;;26.80;51.70;;;;;;5001244;28;20210;-75
2023/06/13 12:08:44;;;;;;;5.87;5.37;;;26.40;51.80;;;;;;4985199;28;20467;-74
2023/06/13 12:11:12;;;;;;;5.90;5.30;;;26.50;51.50;;;;;;5002462;28;21051;-73
2023/06/13 12:13:38;;;;;;;5.17;4.77;;;26.60;51.30;;;;;;4999444;28;20468;-73
2023/06/13 12:16:05;;;;;;;4.63;4.33;;;26.60;50.90;;;;;;4998559;28;20293;-73
2023/06/13 12:18:31;;;;;;;5.37;4.87;;;26.70;51.30;;;;;;5001429;28;21138;-77
2023/06/13 12:20:58;;;;;;;5.53;5.03;;;26.70;50.30;;;;;;5000556;28;20862;-73
2023/06/13 12:23:25;;;;;;;5.83;5.33;;;27.10;50.60;;;;;;5005792;28;20635;-73
2023/06/13 12:25:51;;;;;;;6.27;5.70;;;27.00;50.60;;;;;;5002454;28;20579;-73
2023/06/13 12:28:19;;;;;;;5.60;5.10;;;26.90;50.20;;;;;;4985481;28;20771;-73
2023/06/13 12:30:53;;;;;;;5.43;4.93;;;27.10;51.00;;;;;;4998346;28;20217;-72
2023/06/13 12:33:33;;;;;;;5.00;4.60;;;26.70;50.80;;;;;;4992938;28;20272;-72
2023/06/13 12:35:59;;;;;;;5.73;5.20;;;26.90;50.80;;;;;;4993642;28;20706;-73
2023/06/13 12:38:28;;;;;;;5.30;4.80;;;26.90;51.20;;;;;;4997009;28;20453;-73
2023/06/13 12:40:54;;;;;;;5.60;5.10;;;27.00;50.70;;;;;;4978635;28;20233;-73
2023/06/13 12:43:24;;;;;;;6.30;5.80;;;27.10;50.60;;;;;;4994298;28;20225;-72
2023/06/13 12:45:50;;;;;;;5.30;4.73;;;27.30;50.60;;;;;;5000962;28;20223;-73
2023/06/13 12:48:20;;;;;;;6.30;5.80;;;27.50;50.40;;;;;;4979678;28;20301;-73
2023/06/13 12:50:47;;;;;;;12.40;6.73;;;27.20;51.00;;;;;;4997551;28;20217;-73